Time;durP1;ratioP1;P1;durP2;ratioP2;P2;SDS_P1;SDS_P2;PMS_P1;PMS_P2;Temp;Humidity;BMP_temperature;BMP_pressure;BME280_temperature;BME280_humidity;BME280_pressure;Samples;Min_cycle;Max_cycle;Signal;HPM_P1;HPM_P2
2023/01/15 00:00:41;;;;;;;2.17;0.70;;;;;;;20.48;40.47;99507.91;5035581;28;20037;-72
2023/01/15 00:03:07;;;;;;;1.98;0.73;;;;;;;20.51;40.46;99507.50;5047936;28;20045;-72
2023/01/15 00:05:35;;;;;;;0.90;0.60;;;;;;;20.48;40.27;99498.16;5041696;28;20106;-72
2023/01/15 00:08:01;;;;;;;2.42;0.85;;;;;;;20.42;40.64;99504.28;5040018;28;20710;-72
2023/01/15 00:10:27;;;;;;;1.92;0.60;;;;;;;20.48;40.50;99514.03;5035007;28;20622;-72
2023/01/15 00:12:52;;;;;;;1.55;0.82;;;;;;;20.47;40.44;99503.66;5040310;28;20051;-72
2023/01/15 00:15:18;;;;;;;1.27;0.70;;;;;;;20.43;40.45;99505.91;5047830;28;20052;-72
2023/01/15 00:17:44;;;;;;;1.42;0.95;;;;;;;20.42;40.45;99498.19;5035567;28;20037;-72
2023/01/15 00:20:10;;;;;;;1.38;1.00;;;;;;;20.49;40.42;99502.41;5037992;28;20033;-72
2023/01/15 00:22:36;;;;;;;1.42;1.00;;;;;;;20.47;40.43;99512.41;5038583;28;20041;-72
2023/01/15 00:27:46;;;;;;;1.65;0.55;;;;;;;20.43;40.43;99520.97;5048813;28;20041;-72
2023/01/15 00:30:16;;;;;;;1.90;0.77;;;;;;;20.38;40.65;99518.13;5041657;28;20033;-72
2023/01/15 00:32:42;;;;;;;1.48;0.80;;;;;;;20.37;40.67;99516.50;5036738;28;20112;-72
2023/01/15 00:35:16;;;;;;;1.55;0.95;;;;;;;20.36;40.70;99533.41;5035713;28;20033;-72
2023/01/15 00:37:42;;;;;;;1.30;0.70;;;;;;;20.37;40.65;99516.50;5037971;28;20044;-72
2023/01/15 00:40:10;;;;;;;1.67;0.82;;;;;;;20.44;40.43;99533.97;5032564;28;20050;-72
2023/01/15 00:42:37;;;;;;;1.33;0.70;;;;;;;20.37;40.55;99530.53;5037316;28;20035;-72
2023/01/15 00:45:08;;;;;;;1.50;0.73;;;;;;;20.40;40.47;99524.00;5036088;28;20029;-72
2023/01/15 00:47:42;;;;;;;0.80;0.70;;;;;;;20.39;40.45;99523.19;5041011;28;20028;-72
2023/01/15 00:50:11;;;;;;;1.30;0.63;;;;;;;20.26;40.75;99518.00;5038296;28;20080;-72
2023/01/15 00:52:37;;;;;;;1.53;0.77;;;;;;;20.41;40.38;99531.75;5035805;28;20032;-72
2023/01/15 00:55:05;;;;;;;2.63;0.80;;;;;;;20.38;40.46;99524.22;5037983;28;20500;-72
2023/01/15 00:57:30;;;;;;;1.40;0.70;;;;;;;20.36;40.63;99525.47;5021009;28;20060;-72
2023/01/15 00:59:56;;;;;;;1.35;0.77;;;;;;;20.39;40.34;99528.47;5036107;28;20689;-72
2023/01/15 01:02:21;;;;;;;1.48;0.70;;;;;;;20.31;40.61;99512.91;5042443;28;21380;-72
2023/01/15 01:04:47;;;;;;;1.92;0.93;;;;;;;20.38;40.36;99526.06;5036333;28;20033;-72
2023/01/15 01:07:14;;;;;;;1.27;0.80;;;;;;;20.43;40.22;99526.25;5041330;28;20114;-72
2023/01/15 01:09:40;;;;;;;1.13;0.60;;;;;;;20.31;40.55;99526.13;5039703;28;20044;-72
2023/01/15 01:12:06;;;;;;;0.50;0.50;;;;;;;20.28;40.68;99520.41;5042534;28;20061;-72
2023/01/15 01:14:33;;;;;;;1.55;0.85;;;;;;;20.27;40.63;99522.25;5053446;28;20032;-72
2023/01/15 01:16:58;;;;;;;1.70;1.00;;;;;;;20.28;40.54;99525.72;5041759;28;20051;-72
2023/01/15 01:19:25;;;;;;;2.72;0.93;;;;;;;20.28;40.53;99529.16;5035037;28;20037;-72
2023/01/15 01:21:51;;;;;;;1.60;0.70;;;;;;;20.27;40.48;99516.16;5044698;28;20367;-72
2023/01/15 01:24:19;;;;;;;0.98;0.60;;;;;;;20.28;40.58;99509.84;5041595;28;20076;-72
2023/01/15 01:26:46;;;;;;;2.13;0.93;;;;;;;20.30;40.54;99513.13;5042996;28;20091;-72
2023/01/15 01:29:16;;;;;;;2.03;0.90;;;;;;;20.23;40.63;99515.78;5044601;28;20048;-72
2023/01/15 01:31:42;;;;;;;2.10;0.90;;;;;;;20.30;40.45;99519.22;5041669;28;20041;-72
2023/01/15 01:34:09;;;;;;;3.13;0.98;;;;;;;20.31;40.50;99518.19;5042303;28;20083;-72
2023/01/15 01:36:37;;;;;;;2.95;1.10;;;;;;;20.21;40.57;99508.06;5044150;28;20052;-72
2023/01/15 01:39:04;;;;;;;1.65;0.57;;;;;;;20.20;40.68;99506.44;5048826;28;20033;-72
2023/01/15 01:41:31;;;;;;;2.08;0.70;;;;;;;20.23;40.56;99515.78;5046674;28;21685;-72
2023/01/15 01:43:59;;;;;;;1.42;0.75;;;;;;;20.27;40.39;99509.03;5044030;28;20039;-72
2023/01/15 01:46:27;;;;;;;2.28;0.93;;;;;;;20.26;40.41;99514.53;5047403;28;20036;-72
2023/01/15 01:49:12;;;;;;;2.50;0.68;;;;;;;20.25;40.52;99513.72;5044942;28;20037;-72
2023/01/15 01:51:43;;;;;;;2.50;1.08;;;;;;;20.23;40.55;99515.78;5041728;28;20637;-72
2023/01/15 01:54:12;;;;;;;1.23;0.68;;;;;;;20.15;40.55;99516.84;5047425;28;20036;-72
2023/01/15 01:56:38;;;;;;;0.80;0.57;;;;;;;20.24;40.43;99527.97;5043163;28;20032;-72
2023/01/15 01:59:05;;;;;;;1.88;0.90;;;;;;;20.17;40.63;99520.09;5046078;28;20188;-72
2023/01/15 02:01:32;;;;;;;0.95;0.63;;;;;;;20.13;40.58;99531.31;5043928;28;20055;-72
2023/01/15 02:03:57;;;;;;;1.98;0.80;;;;;;;20.24;40.43;99527.97;5049257;28;20123;-72
2023/01/15 02:06:25;;;;;;;1.10;0.63;;;;;;;20.22;40.49;99525.53;5051363;28;20506;-72
2023/01/15 02:08:51;;;;;;;2.58;1.08;;;;;;;20.14;40.66;99514.44;5049278;28;20092;-72
2023/01/15 02:11:22;;;;;;;2.38;1.38;;;;;;;20.19;40.53;99525.97;5046440;28;20518;-72
2023/01/15 02:13:59;;;;;;;1.65;0.93;;;;;;;20.14;40.55;99522.38;5040348;28;20610;-72
2023/01/15 02:16:46;;;;;;;2.50;1.00;;;;;;;20.26;40.34;99525.13;5037972;28;20107;-72
2023/01/15 02:19:32;;;;;;;1.70;0.80;;;;;;;20.17;40.64;99522.75;5040756;28;20064;-72
2023/01/15 02:22:23;;;;;;;1.33;0.93;;;;;;;20.14;40.41;99511.78;5041021;28;20071;-72
2023/01/15 02:25:07;;;;;;;2.13;1.00;;;;;;;20.24;40.24;99514.75;5041778;28;20029;-72
2023/01/15 02:27:34;;;;;;;2.15;0.77;;;;;;;20.14;40.53;99519.72;5029138;28;20033;-72
2023/01/15 02:30:15;;;;;;;1.35;0.70;;;;;;;20.11;40.63;99512.22;5038922;28;20147;-72
2023/01/15 02:33:03;;;;;;;2.78;1.13;;;;;;;20.07;40.75;99509.16;5036941;28;20026;-72
2023/01/15 02:35:35;;;;;;;2.13;1.25;;;;;;;20.09;40.67;99519.53;5038650;28;20041;-72
2023/01/15 02:38:07;;;;;;;1.83;1.10;;;;;;;20.07;40.68;99519.75;5043753;28;20076;-72
2023/01/15 02:40:33;;;;;;;3.22;0.85;;;;;;;20.08;40.69;99521.34;5049469;28;20041;-72
2023/01/15 02:43:00;;;;;;;3.67;1.35;;;;;;;20.10;40.64;99510.56;5038819;28;20044;-71
2023/01/15 02:45:32;;;;;;;2.92;1.27;;;;;;;20.06;40.65;99517.31;5039226;28;20048;-72
2023/01/15 02:48:13;;;;;;;2.20;0.90;;;;;;;20.12;40.56;99514.66;5040815;28;20029;-72
2023/01/15 02:50:43;;;;;;;2.08;0.77;;;;;;;20.08;40.52;99513.44;5039301;28;20059;-72
2023/01/15 02:53:13;;;;;;;1.77;1.02;;;;;;;20.10;40.64;99508.75;5027635;28;20081;-71
2023/01/15 02:55:46;;;;;;;3.97;1.02;;;;;;;20.05;40.68;99513.06;5026925;28;20120;-72
2023/01/15 02:58:20;;;;;;;1.63;0.75;;;;;;;20.11;40.59;99514.88;5030199;28;20031;-72
2023/01/15 03:00:50;;;;;;;3.05;0.90;;;;;;;20.05;40.60;99500.66;5037202;28;20081;-71
2023/01/15 03:03:27;;;;;;;2.42;1.20;;;;;;;20.06;40.69;99502.25;5056624;28;20174;-72
2023/01/15 03:06:12;;;;;;;3.60;1.30;;;;;;;20.12;40.33;99512.00;5043175;28;20036;-72
2023/01/15 03:08:39;;;;;;;2.78;0.88;;;;;;;20.09;40.54;99514.25;5043991;28;20047;-72
2023/01/15 03:11:13;;;;;;;3.30;1.35;;;;;;;20.10;40.38;99494.72;5033204;28;20036;-72
2023/01/15 03:13:51;;;;;;;2.00;1.00;;;;;;;20.09;40.50;99503.66;5037595;28;20038;-72
2023/01/15 03:16:36;;;;;;;1.80;0.77;;;;;;;20.06;40.54;99499.63;5036316;28;20122;-72
2023/01/15 03:19:29;;;;;;;1.75;0.80;;;;;;;20.05;40.59;99498.00;5036445;28;20044;-72
2023/01/15 03:22:25;;;;;;;2.72;1.10;;;;;;;20.04;40.56;99493.75;5049983;28;20081;-72
2023/01/15 03:25:07;;;;;;;1.08;0.80;;;;;;;20.03;40.38;99492.13;5040499;28;20114;-72
2023/01/15 03:27:39;;;;;;;3.42;1.42;;;;;;;19.98;40.71;99488.50;5038333;28;20025;-72
2023/01/15 03:30:12;;;;;;;3.90;0.98;;;;;;;20.03;40.61;99489.47;5038652;28;20052;-71
2023/01/15 03:32:38;;;;;;;3.10;1.08;;;;;;;20.04;40.52;99483.19;5045278;28;20048;-72
2023/01/15 03:35:26;;;;;;;2.60;1.35;;;;;;;19.98;40.64;99480.59;5039017;28;20032;-72
2023/01/15 03:37:52;;;;;;;1.50;0.70;;;;;;;20.02;40.50;99487.06;5044443;28;20049;-72
2023/01/15 03:40:18;;;;;;;1.40;0.80;;;;;;;20.00;40.54;99479.34;5049250;28;20056;-71
2023/01/15 03:43:39;;;;;;;2.58;1.13;;;;;;;19.96;40.61;99483.44;5042697;28;20036;-72
2023/01/15 03:45:37;;;;;;;2.58;1.08;;;;;;;20.01;40.42;99480.97;5035394;28;20032;-71
2023/01/15 03:48:24;;;;;;;1.73;0.77;;;;;;;20.02;40.48;99468.56;5041437;28;20054;-72
2023/01/15 03:51:00;;;;;;;2.20;1.20;;;;;;;19.98;40.55;99460.25;5032507;28;20033;-72
2023/01/15 03:53:39;;;;;;;4.10;1.30;;;;;;;19.98;40.44;99470.03;5039882;28;20060;-71
2023/01/15 03:56:18;;;;;;;2.78;0.90;;;;;;;19.99;40.55;99476.91;5034840;28;20639;-72
2023/01/15 03:58:51;;;;;;;2.05;1.25;;;;;;;19.99;40.57;99467.16;5038191;28;20032;-72
2023/01/15 04:01:30;;;;;;;1.67;1.08;;;;;;;19.88;40.73;99460.72;5046719;28;20056;-71
2023/01/15 04:03:58;;;;;;;3.25;1.10;;;;;;;19.98;40.48;99465.53;5046728;28;20025;-72
2023/01/15 04:06:28;;;;;;;2.05;0.63;;;;;;;19.97;40.55;99466.56;5041567;28;20059;-72
2023/01/15 04:08:56;;;;;;;2.28;1.10;;;;;;;20.02;40.53;99463.28;5051815;28;20037;-72
2023/01/15 04:11:24;;;;;;;3.17;1.13;;;;;;;19.95;40.53;99462.53;5043950;28;20041;-71
2023/01/15 04:13:53;;;;;;;3.35;1.08;;;;;;;19.90;40.69;99473.69;5046791;28;20459;-72
2023/01/15 04:16:44;;;;;;;1.63;0.70;;;;;;;19.92;40.75;99469.00;5039105;28;20131;-71
2023/01/15 04:19:12;;;;;;;2.40;1.13;;;;;;;19.97;40.58;99473.69;5050137;28;20035;-72
2023/01/15 04:21:44;;;;;;;1.23;0.93;;;;;;;19.99;40.57;99459.22;5038612;28;20045;-72
2023/01/15 04:24:09;;;;;;;1.77;0.82;;;;;;;19.90;40.62;99466.59;5039989;28;20037;-72
2023/01/15 04:26:35;;;;;;;2.22;1.30;;;;;;;19.95;40.46;99455.41;5041879;28;20072;-71
2023/01/15 04:29:01;;;;;;;2.05;1.23;;;;;;;19.99;40.42;99453.94;5044584;28;20790;-71
2023/01/15 04:31:26;;;;;;;1.58;0.75;;;;;;;19.95;40.53;99455.41;5040031;28;20046;-71
2023/01/15 04:33:52;;;;;;;3.08;1.05;;;;;;;19.87;40.71;99450.34;5040483;28;20047;-72
2023/01/15 04:36:18;;;;;;;2.60;0.85;;;;;;;19.95;40.58;99444.84;5042884;28;20040;-71
2023/01/15 04:38:43;;;;;;;2.40;1.25;;;;;;;19.92;40.63;99447.88;5040155;28;20522;-71
2023/01/15 04:44:06;;;;;;;4.82;1.58;;;;;;;19.87;40.74;99447.72;5036803;28;20049;-71
2023/01/15 04:46:38;;;;;;;2.97;1.08;;;;;;;19.85;40.67;99447.94;5037488;28;20142;-72
2023/01/15 04:49:06;;;;;;;3.60;1.10;;;;;;;19.86;40.80;99454.03;5040681;28;20056;-72
2023/01/15 04:51:31;;;;;;;2.15;1.25;;;;;;;19.88;40.62;99450.16;5035695;28;20568;-71
2023/01/15 04:53:57;;;;;;;2.65;1.10;;;;;;;19.82;40.67;99439.63;5049030;28;20036;-72
2023/01/15 04:56:22;;;;;;;3.97;1.15;;;;;;;19.92;40.60;99450.53;5040213;28;20048;-72
2023/01/15 04:58:48;;;;;;;2.47;1.10;;;;;;;19.85;40.73;99447.13;5045516;28;20032;-71
2023/01/15 05:01:15;;;;;;;2.55;1.08;;;;;;;19.90;40.62;99445.44;5028019;28;20042;-72
2023/01/15 05:03:41;;;;;;;2.70;1.02;;;;;;;19.87;40.47;99445.06;5043116;28;20415;-71
2023/01/15 05:06:07;;;;;;;1.67;0.73;;;;;;;19.84;40.51;99435.75;5040160;28;20044;-72
2023/01/15 05:08:33;;;;;;;2.75;1.13;;;;;;;19.90;40.52;99434.88;5046441;28;20036;-72
2023/01/15 05:11:03;;;;;;;1.75;0.90;;;;;;;19.88;40.54;99441.41;5045194;28;20592;-72
2023/01/15 05:13:31;;;;;;;4.38;1.33;;;;;;;19.87;40.59;99440.59;5034091;28;20028;-72
2023/01/15 05:16:16;;;;;;;1.58;1.08;;;;;;;19.86;40.50;99440.81;5036582;28;20041;-72
2023/01/15 05:18:42;;;;;;;2.80;1.13;;;;;;;19.84;40.50;99430.47;5042468;28;20066;-72
2023/01/15 05:21:21;;;;;;;2.05;0.85;;;;;;;19.86;40.55;99433.69;5036526;28;20110;-72
2023/01/15 05:23:48;;;;;;;2.67;1.10;;;;;;;19.92;40.61;99422.28;5036271;28;20083;-72
2023/01/15 05:26:14;;;;;;;1.83;0.98;;;;;;;19.79;40.55;99418.94;5047849;28;20127;-72
2023/01/15 05:28:39;;;;;;;1.88;1.30;;;;;;;19.85;40.48;99426.00;5037182;28;20033;-72
2023/01/15 05:31:10;;;;;;;3.60;1.02;;;;;;;19.84;40.56;99421.72;5038006;28;20192;-72
2023/01/15 05:33:37;;;;;;;1.98;1.02;;;;;;;19.91;40.28;99427.78;5040917;28;20036;-72
2023/01/15 05:36:05;;;;;;;1.98;1.10;;;;;;;19.79;40.64;99430.31;5044833;28;20039;-72
2023/01/15 05:38:30;;;;;;;3.53;1.50;;;;;;;19.78;40.80;99426.03;5041057;28;20076;-72
2023/01/15 05:40:56;;;;;;;2.67;1.40;;;;;;;19.81;40.60;99427.44;5042032;28;20033;-72
2023/01/15 05:43:21;;;;;;;2.03;1.20;;;;;;;19.83;40.57;99425.41;5035436;28;20436;-72
2023/01/15 05:45:47;;;;;;;2.88;1.02;;;;;;;19.77;40.61;99432.34;5035978;28;20631;-72
2023/01/15 05:48:12;;;;;;;1.75;0.75;;;;;;;19.84;40.42;99424.38;5043315;28;20231;-72
2023/01/15 05:50:38;;;;;;;2.33;1.10;;;;;;;19.76;40.61;99419.34;5044846;28;20036;-72
2023/01/15 05:53:03;;;;;;;1.50;1.00;;;;;;;19.74;40.53;99408.97;5038276;28;21840;-72
2023/01/15 05:55:29;;;;;;;2.33;1.20;;;;;;;19.83;40.44;99420.13;5044716;28;20418;-72
2023/01/15 05:57:54;;;;;;;4.30;1.50;;;;;;;19.72;40.55;99416.31;5040466;28;20042;-72
2023/01/15 06:00:20;;;;;;;2.83;1.23;;;;;;;19.73;40.58;99417.13;5035045;28;20048;-72
2023/01/15 06:02:49;;;;;;;2.15;1.00;;;;;;;19.78;40.45;99417.31;5035439;28;20033;-71
2023/01/15 06:05:18;;;;;;;2.75;1.13;;;;;;;19.75;40.46;99423.00;5051489;28;20052;-71
2023/01/15 06:07:47;;;;;;;2.35;1.10;;;;;;;19.68;40.59;99420.41;5044099;28;20055;-72
2023/01/15 06:10:15;;;;;;;2.65;1.17;;;;;;;19.80;40.31;99416.06;5052682;28;20505;-72
2023/01/15 06:12:40;;;;;;;2.22;0.80;;;;;;;19.71;40.60;99405.97;5044382;28;20065;-71
2023/01/15 06:15:06;;;;;;;4.72;1.13;;;;;;;19.63;40.43;99407.03;5047067;28;20112;-71
2023/01/15 06:17:32;;;;;;;2.13;1.15;;;;;;;19.71;40.47;99405.97;5020925;28;20037;-72
2023/01/15 06:19:58;;;;;;;4.53;1.40;;;;;;;19.77;40.38;99411.22;5045619;28;20039;-72
2023/01/15 06:22:23;;;;;;;3.08;0.93;;;;;;;19.67;40.56;99407.41;5042902;28;20036;-71
2023/01/15 06:24:49;;;;;;;1.70;0.95;;;;;;;19.71;40.38;99405.97;5044215;28;20076;-71
2023/01/15 06:27:14;;;;;;;1.98;1.08;;;;;;;19.74;40.29;99406.34;5044566;28;20048;-72
2023/01/15 06:29:40;;;;;;;2.38;0.93;;;;;;;19.67;40.62;99402.94;5048318;28;20045;-71
2023/01/15 06:32:05;;;;;;;2.55;1.02;;;;;;;19.67;40.48;99405.59;5040531;28;20060;-72
2023/01/15 06:34:31;;;;;;;1.40;1.00;;;;;;;19.75;40.26;99407.16;5044676;28;20791;-72
2023/01/15 06:36:56;;;;;;;1.35;0.77;;;;;;;19.69;40.43;99392.97;5041613;28;20454;-72
2023/01/15 06:39:22;;;;;;;2.30;1.02;;;;;;;19.71;40.49;99403.31;5044255;28;20123;-72
2023/01/15 06:47:21;;;;;;;4.30;1.60;;;;;;;19.70;40.47;99396.41;5042741;28;20057;-72
2023/01/15 06:49:56;;;;;;;2.03;1.30;;;;;;;19.72;40.33;99391.72;5041782;28;20140;-72
2023/01/15 06:52:23;;;;;;;3.10;1.13;;;;;;;20.96;38.17;99393.50;5047091;28;20646;-72
2023/01/15 06:54:48;;;;;;;2.33;1.42;;;;;;;21.90;36.76;99397.34;5040758;28;20042;-72
2023/01/15 06:57:14;;;;;;;1.40;0.90;;;;;;;21.89;36.32;99403.69;5046335;28;20746;-72
2023/01/15 06:59:39;;;;;;;3.33;1.13;;;;;;;22.09;36.56;99403.41;5035233;28;20041;-72
2023/01/15 07:02:05;;;;;;;3.97;0.95;;;;;;;22.12;36.20;99398.47;5038911;28;20052;-72
2023/01/15 07:04:31;;;;;;;2.13;1.00;;;;;;;22.09;36.21;99387.50;5050882;28;20040;-72
2023/01/15 07:06:56;;;;;;;1.67;0.95;;;;;;;22.41;35.88;99380.81;5050584;28;21257;-72
2023/01/15 07:09:22;;;;;;;3.03;1.38;;;;;;;22.56;35.96;99378.50;5047081;28;20045;-72
2023/01/15 07:11:50;;;;;;;2.63;1.00;;;;;;;22.69;35.41;99371.34;5041656;28;20049;-72
2023/01/15 07:14:22;;;;;;;1.50;1.10;;;;;;;22.59;35.65;99383.34;5038312;28;20045;-72
2023/01/15 07:16:48;;;;;;;2.88;0.82;;;;;;;22.48;36.05;99380.72;5043665;28;20032;-72
2023/01/15 07:19:14;;;;;;;3.20;1.00;;;;;;;22.35;36.07;99380.94;5038645;28;20146;-72
2023/01/15 07:21:40;;;;;;;2.53;1.00;;;;;;;22.27;36.35;99382.09;5043239;28;20067;-72
2023/01/15 07:24:07;;;;;;;3.78;1.02;;;;;;;22.16;36.49;99385.56;5041187;28;20569;-72
2023/01/15 07:26:33;;;;;;;1.67;0.70;;;;;;;22.07;36.67;99393.03;5047491;28;20072;-72
2023/01/15 07:28:58;;;;;;;2.00;1.20;;;;;;;21.96;36.69;99386.66;5044161;28;20120;-72
2023/01/15 07:31:23;;;;;;;1.80;0.90;;;;;;;21.93;36.77;99389.75;5036159;28;20484;-72
2023/01/15 07:33:49;;;;;;;4.05;1.48;;;;;;;21.90;37.23;99392.03;5047966;28;20064;-71
2023/01/15 07:36:14;;;;;;;2.05;1.00;;;;;;;21.86;36.92;99390.88;5042795;28;20548;-71
2023/01/15 07:38:40;;;;;;;1.95;1.02;;;;;;;21.83;36.87;99391.34;5043290;28;20104;-72
2023/01/15 07:52:03;;;;;;;2.28;1.38;;;;;;;21.51;37.67;99372.25;5036992;28;20151;-72
2023/01/15 07:54:28;;;;;;;1.75;1.08;;;;;;;21.59;37.34;99386.00;5045654;28;20550;-72
2023/01/15 07:56:55;;;;;;;1.90;0.95;;;;;;;21.49;37.66;99366.38;5045118;28;20041;-72
2023/01/15 07:59:20;;;;;;;1.77;1.23;;;;;;;21.47;37.73;99377.19;5035393;28;20035;-72
2023/01/15 08:01:46;;;;;;;4.03;1.60;;;;;;;21.48;37.53;99375.34;5060012;28;20033;-72
2023/01/15 08:04:11;;;;;;;2.13;0.93;;;;;;;21.34;37.94;99383.47;5035662;28;20049;-72
2023/01/15 08:06:37;;;;;;;3.22;1.27;;;;;;;21.29;38.06;99388.63;5046322;28;20054;-72
2023/01/15 08:09:03;;;;;;;1.95;0.90;;;;;;;21.19;38.04;99379.59;5038558;28;20060;-72
2023/01/15 08:16:58;;;;;;;2.70;1.15;;;;;;;20.88;38.89;99393.78;5031831;28;21021;-72
2023/01/15 08:19:28;;;;;;;2.15;1.17;;;;;;;20.73;39.14;99375.66;5032826;28;20041;-72
2023/01/15 08:21:55;;;;;;;1.80;0.68;;;;;;;20.75;38.97;99363.00;5037488;28;20571;-72
2023/01/15 08:24:21;;;;;;;2.65;1.00;;;;;;;20.72;38.94;99366.91;5033560;28;20446;-72
2023/01/15 08:26:47;;;;;;;1.55;0.90;;;;;;;20.77;38.88;99374.97;5036611;28;20040;-72
2023/01/15 08:29:13;;;;;;;2.15;0.98;;;;;;;21.04;38.45;99370.19;5034730;28;20040;-72
2023/01/15 08:31:40;;;;;;;1.63;1.08;;;;;;;20.97;38.40;99350.94;5042002;28;20044;-72
2023/01/15 08:34:06;;;;;;;2.75;1.10;;;;;;;21.12;38.16;99375.16;5031785;28;20607;-72
2023/01/15 08:36:32;;;;;;;1.77;0.98;;;;;;;21.04;38.44;99375.50;5036776;28;20171;-72
2023/01/15 08:38:57;;;;;;;2.40;1.13;;;;;;;20.95;38.46;99360.13;5034420;28;20033;-73
2023/01/15 08:41:24;;;;;;;4.43;1.42;;;;;;;21.42;37.28;99385.00;5027865;28;20043;-71
2023/01/15 08:43:50;;;;;;;2.58;1.38;;;;;;;21.94;36.73;99383.44;4997677;28;20058;-63
2023/01/15 08:46:16;;;;;;;3.30;1.60;;;;;;;22.40;35.68;99373.91;5034078;28;20917;-64
2023/01/15 08:48:41;;;;;;;2.78;1.23;;;;;;;22.48;35.80;99375.41;5031778;28;20026;-63
2023/01/15 08:51:08;;;;;;;4.75;1.77;;;;;;;22.45;36.05;99381.19;5037687;28;20052;-67
2023/01/15 08:53:35;;;;;;;3.13;1.30;;;;;;;22.35;36.12;99384.41;5033119;28;20067;-67
2023/01/15 08:56:01;;;;;;;2.53;1.10;;;;;;;22.34;36.04;99376.69;5031855;28;20516;-68
2023/01/15 08:58:31;;;;;;;1.92;1.17;;;;;;;22.29;36.15;99364.94;5009588;28;20366;-69
2023/01/15 09:01:05;;;;;;;4.30;1.10;;;;;;;22.22;35.96;99355.47;5030919;28;20029;-69
2023/01/15 09:03:31;;;;;;;1.38;0.90;;;;;;;22.33;35.96;99373.22;5035598;28;20037;-69
2023/01/15 09:06:01;;;;;;;4.28;1.42;;;;;;;22.25;35.81;99379.66;5030772;28;20033;-69
2023/01/15 09:08:28;;;;;;;1.50;0.90;;;;;;;22.15;35.99;99357.44;5035879;28;20075;-68
2023/01/15 09:11:01;;;;;;;3.38;1.05;;;;;;;22.11;36.42;99378.28;5030078;28;20128;-68
2023/01/15 09:13:27;;;;;;;2.10;0.93;;;;;;;22.10;36.37;99373.22;5038502;28;20034;-69
2023/01/15 09:15:53;;;;;;;2.10;1.02;;;;;;;22.05;36.25;99370.44;5002651;28;20068;-69
2023/01/15 09:18:19;;;;;;;2.03;0.98;;;;;;;21.97;36.33;99374.22;5036220;28;20392;-69
2023/01/15 09:20:46;;;;;;;3.22;1.17;;;;;;;21.95;36.33;99363.03;5043215;28;20819;-69
2023/01/15 09:23:11;;;;;;;3.33;1.13;;;;;;;21.90;36.42;99370.84;5031044;28;20056;-69
2023/01/15 09:25:37;;;;;;;4.22;1.17;;;;;;;21.91;36.48;99357.38;5036956;28;20041;-69
2023/01/15 09:28:02;;;;;;;2.30;1.23;;;;;;;21.88;36.39;99386.16;5039075;28;20829;-69
2023/01/15 09:30:28;;;;;;;6.10;1.55;;;;;;;21.85;36.11;99384.78;5024875;28;20041;-68
2023/01/15 09:32:54;;;;;;;3.53;1.17;;;;;;;21.86;36.13;99386.38;5020485;28;20045;-76
2023/01/15 09:35:21;;;;;;;1.77;1.15;;;;;;;21.83;36.24;99386.03;5035105;28;20048;-78
2023/01/15 09:37:53;;;;;;;1.98;0.93;;;;;;;21.81;36.21;99380.97;5032495;28;20077;-76
2023/01/15 09:40:41;;;;;;;3.30;1.42;;;;;;;21.78;36.34;99384.09;5039443;28;20119;-75
2023/01/15 09:43:27;;;;;;;3.55;1.63;;;;;;;21.73;36.54;99383.16;5034873;28;20156;-75
2023/01/15 09:45:55;;;;;;;2.15;1.30;;;;;;;21.72;36.33;99369.06;5037178;28;20165;-76
2023/01/15 09:48:51;;;;;;;2.58;1.52;;;;;;;21.75;36.25;99371.28;5006839;28;20564;-68
2023/01/15 09:51:37;;;;;;;5.60;1.33;;;;;;;21.71;36.12;99370.09;5040351;28;20041;-68
2023/01/15 09:54:05;;;;;;;2.00;1.00;;;;;;;21.66;36.20;99357.56;5037997;28;20034;-67
2023/01/15 09:56:34;;;;;;;1.80;0.98;;;;;;;21.60;36.33;99361.13;5043040;28;20111;-67
2023/01/15 09:59:09;;;;;;;4.50;1.80;;;;;;;21.63;36.05;99352.72;5037698;28;20421;-67
2023/01/15 10:01:36;;;;;;;2.42;1.25;;;;;;;21.63;36.00;99362.50;5039198;28;20037;-67
2023/01/15 10:04:14;;;;;;;3.10;1.13;;;;;;;21.59;35.91;99366.63;5005266;28;20048;-74
2023/01/15 10:06:54;;;;;;;5.13;1.38;;;;;;;21.56;35.93;99361.81;5038576;28;20457;-76
2023/01/15 10:09:36;;;;;;;5.43;1.50;;;;;;;21.55;36.00;99363.63;5040399;28;20109;-74
2023/01/15 10:15:14;;;;;;;4.68;1.65;;;;;;;21.50;36.09;99363.50;5033146;28;20420;-75
2023/01/15 10:17:42;;;;;;;5.10;1.50;;;;;;;21.44;36.15;99355.66;5036037;28;20060;-75
2023/01/15 10:20:17;;;;;;;7.32;2.00;;;;;;;21.48;36.26;99359.47;5025514;28;20111;-77
2023/01/15 10:22:43;;;;;;;5.10;1.40;;;;;;;21.46;36.31;99345.63;5015423;28;20112;-75
2023/01/15 10:25:14;;;;;;;5.28;1.80;;;;;;;21.46;35.99;99356.22;5036961;28;20033;-76
2023/01/15 10:27:45;;;;;;;5.05;1.30;;;;;;;21.50;36.32;99349.44;5043280;28;20510;-77
2023/01/15 10:30:16;;;;;;;6.25;1.80;;;;;;;21.49;36.39;99347.81;5035811;28;20048;-76
2023/01/15 10:32:52;;;;;;;3.13;1.17;;;;;;;21.47;36.63;99341.94;5036477;28;20118;-76
2023/01/15 10:35:39;;;;;;;4.57;1.90;;;;;;;21.44;36.26;99334.47;5038692;28;20065;-76
2023/01/15 10:38:26;;;;;;;5.65;1.90;;;;;;;21.41;36.39;99338.38;5020480;28;20159;-74
2023/01/15 10:41:19;;;;;;;4.57;1.55;;;;;;;21.43;36.52;99333.66;5027296;28;20072;-73
2023/01/15 10:44:03;;;;;;;6.38;1.80;;;;;;;21.42;36.49;99340.00;5038920;28;20055;-73
2023/01/15 10:46:37;;;;;;;5.57;1.63;;;;;;;21.42;35.89;99337.34;5046424;28;20445;-74
2023/01/15 10:49:05;;;;;;;4.90;1.88;;;;;;;21.44;36.21;99342.41;5028964;28;20025;-74
2023/01/15 10:51:44;;;;;;;6.03;1.65;;;;;;;21.39;36.08;99335.97;5038828;28;20041;-74
2023/01/15 10:54:22;;;;;;;5.80;1.95;;;;;;;21.38;36.10;99344.13;4999059;28;20076;-66
2023/01/15 10:57:08;;;;;;;6.57;2.42;;;;;;;21.45;36.32;99346.66;5017328;28;20431;-66
2023/01/15 10:59:37;;;;;;;4.63;1.52;;;;;;;21.39;35.98;99346.53;5042828;28;20037;-66
2023/01/15 11:02:20;;;;;;;4.20;1.30;;;;;;;21.39;35.98;99338.59;5043819;28;20491;-68
2023/01/15 11:04:46;;;;;;;5.32;1.63;;;;;;;21.40;36.12;99339.41;5035482;28;20127;-66
2023/01/15 11:07:12;;;;;;;3.20;1.50;;;;;;;21.37;36.01;99332.72;5038030;28;20097;-68
2023/01/15 11:09:40;;;;;;;2.83;1.45;;;;;;;21.38;36.01;99325.59;4997742;28;20045;-69
2023/01/15 11:20:33;;;;;;;3.38;1.42;;;;;;;21.62;35.45;99337.84;5040284;28;20044;-68
2023/01/15 11:23:06;;;;;;;;;;;;;;;21.89;35.39;99322.31;5040392;28;20037;-69
2023/01/15 11:25:32;;;;;;;4.20;1.42;;;;;;;21.88;35.25;99327.84;5010298;28;19932;-69
2023/01/15 11:28:01;;;;;;;3.50;1.40;;;;;;;21.96;34.68;99307.13;5043706;28;20091;-67
2023/01/15 11:30:38;;;;;;;4.13;1.60;;;;;;;21.97;34.77;99319.34;5042361;28;20116;-69
2023/01/15 11:33:05;;;;;;;4.85;1.90;;;;;;;21.97;35.12;99326.50;5040603;28;20163;-68
2023/01/15 11:35:32;;;;;;;3.65;1.10;;;;;;;21.96;34.83;99322.25;5046109;28;20745;-69
2023/01/15 11:38:26;;;;;;;4.28;1.33;;;;;;;21.94;35.06;99316.34;5037782;28;20041;-69
2023/01/15 11:41:01;;;;;;;3.38;1.20;;;;;;;21.87;35.03;99315.66;5026721;28;20621;-74
2023/01/15 11:52:02;;;;;;;5.03;1.52;;;;;;;21.81;35.10;99296.19;5042682;28;20128;-75
2023/01/15 11:54:29;;;;;;;6.00;1.63;;;;;;;21.77;35.08;99295.03;5043626;28;20518;-75
2023/01/15 11:56:55;;;;;;;3.92;1.42;;;;;;;21.76;35.38;99292.63;5017225;28;20043;-75
2023/01/15 11:59:21;;;;;;;3.15;1.02;;;;;;;21.75;35.20;99285.69;5030150;28;20045;-72
2023/01/15 12:01:49;;;;;;;4.10;1.48;;;;;;;21.76;35.12;99288.13;5036084;28;20047;-73
2023/01/15 12:04:42;;;;;;;3.65;1.50;;;;;;;21.71;35.52;99291.44;5041008;28;20048;-74
2023/01/15 12:07:12;;;;;;;3.67;2.00;;;;;;;21.70;35.50;99291.66;5052281;28;20045;-72
2023/01/15 12:09:56;;;;;;;5.28;1.40;;;;;;;21.72;35.25;99284.28;5032237;28;20073;-73
2023/01/15 12:12:35;;;;;;;3.65;1.13;;;;;;;21.68;35.42;99283.16;5038706;28;20430;-73
2023/01/15 12:15:27;;;;;;;7.38;1.42;;;;;;;21.66;35.44;99285.22;5004353;28;20972;-75
2023/01/15 12:18:08;;;;;;;4.30;1.63;;;;;;;21.62;35.44;99274.28;5043204;28;20074;-75
2023/01/15 12:20:36;;;;;;;5.70;1.60;;;;;;;21.59;35.43;99282.69;5038495;28;20082;-74
2023/01/15 12:23:35;;;;;;;3.17;1.40;;;;;;;21.59;35.55;99282.69;5025738;28;20044;-74
2023/01/15 12:26:27;;;;;;;4.32;1.48;;;;;;;21.61;35.14;99261.25;5035913;28;20117;-75
2023/01/15 12:29:03;;;;;;;5.28;1.83;;;;;;;21.60;35.49;99273.69;5014448;28;20041;-74
2023/01/15 12:31:39;;;;;;;3.40;1.38;;;;;;;21.54;35.42;99292.31;5014231;28;20061;-74
2023/01/15 12:34:16;;;;;;;4.30;1.30;;;;;;;21.54;35.57;99314.31;5034163;28;20049;-74
2023/01/15 12:36:57;;;;;;;2.95;1.58;;;;;;;21.51;35.47;99274.25;5035359;28;20041;-74